createdAt,value
2018-12-02T00:00:10.424Z,1.90
2018-12-02T00:02:37.680Z,1.97
2018-12-02T00:05:07.367Z,1.73
2018-12-02T00:07:34.640Z,2.20
2018-12-02T00:10:02.068Z,1.57
2018-12-02T00:12:29.189Z,1.80
2018-12-02T00:14:56.320Z,2.23
2018-12-02T00:17:23.428Z,1.90
2018-12-02T00:19:50.636Z,3.60
2018-12-02T00:22:17.820Z,1.80
2018-12-02T00:24:45.049Z,1.70
2018-12-02T00:27:12.575Z,1.87
2018-12-02T00:29:39.995Z,1.50
2018-12-02T00:32:07.143Z,1.60
2018-12-02T00:34:34.296Z,1.53
2018-12-02T00:37:01.471Z,1.30
2018-12-02T00:39:28.580Z,1.47
2018-12-02T00:41:55.726Z,1.57
2018-12-02T00:44:22.895Z,1.50
2018-12-02T00:46:50.053Z,1.50
2018-12-02T00:49:17.209Z,1.43
2018-12-02T00:51:44.401Z,1.40
2018-12-02T00:54:11.629Z,1.60
2018-12-02T00:56:38.912Z,1.43
2018-12-02T00:59:06.168Z,1.50
2018-12-02T01:01:33.392Z,1.63
2018-12-02T01:04:00.624Z,1.70
2018-12-02T01:06:27.825Z,1.60
2018-12-02T01:08:55.028Z,1.30
2018-12-02T01:11:22.192Z,1.23
2018-12-02T01:13:49.452Z,1.20
2018-12-02T01:16:16.704Z,1.07
2018-12-02T01:18:44.472Z,1.23
2018-12-02T01:21:11.691Z,1.07
2018-12-02T01:23:39.482Z,1.40
2018-12-02T01:26:06.664Z,1.27
2018-12-02T01:28:33.925Z,1.00
2018-12-02T01:31:01.324Z,1.30
2018-12-02T01:33:28.456Z,1.30
2018-12-02T01:35:55.580Z,1.10
2018-12-02T01:38:22.773Z,0.97
2018-12-02T01:40:49.940Z,1.03
2018-12-02T01:43:17.063Z,1.10
2018-12-02T01:45:44.309Z,0.90
2018-12-02T01:48:11.461Z,1.20
2018-12-02T01:50:38.674Z,0.90
2018-12-02T01:53:05.883Z,0.90
2018-12-02T01:55:33.007Z,1.10
2018-12-02T01:58:00.154Z,1.00
2018-12-02T02:00:27.767Z,0.87
2018-12-02T02:02:55.749Z,1.97
2018-12-02T02:05:23.713Z,1.23
2018-12-02T02:07:51.027Z,0.87
2018-12-02T02:10:26.684Z,0.90
2018-12-02T02:12:53.886Z,0.90
2018-12-02T02:15:21.178Z,1.00
2018-12-02T02:17:48.329Z,0.90
2018-12-02T02:20:16.396Z,1.00
2018-12-02T02:22:43.822Z,0.80
2018-12-02T02:25:12.770Z,0.90
2018-12-02T02:27:40.880Z,0.90
2018-12-02T02:30:12.892Z,0.67
2018-12-02T02:32:40.104Z,0.83
2018-12-02T02:35:07.701Z,0.60
2018-12-02T02:37:34.802Z,0.80
2018-12-02T02:40:02.306Z,0.83
2018-12-02T02:42:29.421Z,0.70
2018-12-02T02:44:56.581Z,0.80
2018-12-02T02:47:23.695Z,1.20
2018-12-02T02:49:50.846Z,0.67
2018-12-02T02:52:18.032Z,1.10
2018-12-02T02:54:45.212Z,0.70
2018-12-02T02:57:12.342Z,0.60
2018-12-02T02:59:39.518Z,0.83
2018-12-02T03:02:06.726Z,0.80
2018-12-02T03:04:33.833Z,0.77
2018-12-02T03:07:01.111Z,0.70
2018-12-02T03:09:28.272Z,0.70
2018-12-02T03:11:55.421Z,0.77
2018-12-02T03:14:22.593Z,0.90
2018-12-02T03:16:49.691Z,0.83
2018-12-02T03:19:16.968Z,1.50
2018-12-02T03:21:44.136Z,0.77
2018-12-02T03:24:11.265Z,0.70
2018-12-02T03:26:38.477Z,0.50
2018-12-02T03:29:05.638Z,0.73
2018-12-02T03:31:32.851Z,0.90
2018-12-02T03:34:00.120Z,0.50
2018-12-02T03:36:27.309Z,0.80
2018-12-02T03:38:54.482Z,0.60
2018-12-02T03:41:21.653Z,0.60
2018-12-02T03:43:48.777Z,0.87
2018-12-02T03:46:15.926Z,0.60
2018-12-02T03:48:43.080Z,0.50
2018-12-02T03:51:10.224Z,0.60
2018-12-02T03:53:37.377Z,0.50
2018-12-02T03:56:04.496Z,0.70
2018-12-02T03:58:31.660Z,0.60
2018-12-02T04:00:58.826Z,0.57
2018-12-02T04:03:25.978Z,0.67
2018-12-02T04:05:53.100Z,0.80
2018-12-02T04:08:20.288Z,0.70
2018-12-02T04:10:47.406Z,0.60
2018-12-02T04:13:14.594Z,0.70
2018-12-02T04:15:41.774Z,0.53
2018-12-02T04:18:08.972Z,0.60
2018-12-02T04:20:36.144Z,0.80
2018-12-02T04:23:03.303Z,0.50
2018-12-02T04:25:30.400Z,0.70
2018-12-02T04:27:57.500Z,0.50
2018-12-02T04:30:24.625Z,0.50
2018-12-02T04:32:52.425Z,0.50
2018-12-02T04:35:24.330Z,0.50
2018-12-02T04:37:51.544Z,1.10
2018-12-02T04:40:18.655Z,0.50
2018-12-02T04:42:45.828Z,0.40
2018-12-02T04:45:14.440Z,0.40
2018-12-02T04:47:41.538Z,0.63
2018-12-02T04:50:13.747Z,0.50
2018-12-02T04:52:40.873Z,0.43
2018-12-02T04:55:08.660Z,0.50
2018-12-02T04:57:35.819Z,0.50
2018-12-02T05:00:03.076Z,0.40
2018-12-02T05:02:30.206Z,0.50
2018-12-02T05:04:57.400Z,0.50
2018-12-02T05:07:24.536Z,0.43
2018-12-02T05:09:51.733Z,0.50
2018-12-02T05:12:18.897Z,0.70
2018-12-02T05:14:46.004Z,0.50
2018-12-02T05:17:13.127Z,0.50
2018-12-02T05:19:40.310Z,0.60
2018-12-02T05:22:07.429Z,0.70
2018-12-02T05:24:34.536Z,0.50
2018-12-02T05:27:01.696Z,0.50
2018-12-02T05:29:29.032Z,0.50
2018-12-02T05:31:56.202Z,0.70
2018-12-02T05:34:23.276Z,0.57
2018-12-02T05:36:50.475Z,0.50
2018-12-02T05:39:17.632Z,0.53
2018-12-02T05:41:50.506Z,0.57
2018-12-02T05:44:17.668Z,0.50
2018-12-02T05:46:44.836Z,0.60
2018-12-02T05:49:11.980Z,0.50
2018-12-02T05:51:39.106Z,0.50
2018-12-02T05:54:06.269Z,0.50
2018-12-02T05:56:33.427Z,0.40
2018-12-02T05:59:00.607Z,0.60
2018-12-02T06:01:27.712Z,0.50
2018-12-02T06:03:54.856Z,0.70
2018-12-02T06:06:21.975Z,0.60
2018-12-02T06:08:49.119Z,0.70
2018-12-02T06:11:16.273Z,0.80
2018-12-02T06:13:43.453Z,0.80
2018-12-02T06:16:10.613Z,0.77
2018-12-02T06:18:37.809Z,0.60
2018-12-02T06:21:05.043Z,0.60
2018-12-02T06:23:32.186Z,0.70
2018-12-02T06:25:59.358Z,0.60
2018-12-02T06:28:26.494Z,0.50
2018-12-02T06:30:53.706Z,0.50
2018-12-02T06:33:20.829Z,0.60
2018-12-02T06:35:48.012Z,0.53
2018-12-02T06:38:15.217Z,0.60
2018-12-02T06:40:42.388Z,0.60
2018-12-02T06:43:09.467Z,0.50
2018-12-02T06:45:36.581Z,0.50
2018-12-02T06:48:03.751Z,0.50
2018-12-02T06:50:30.853Z,0.43
2018-12-02T06:52:57.956Z,0.50
2018-12-02T06:56:02.396Z,0.60
2018-12-02T06:58:44.534Z,0.50
2018-12-02T07:01:30.535Z,0.50
2018-12-02T07:04:38.343Z,0.80
2018-12-02T07:07:05.677Z,0.60
2018-12-02T07:09:32.847Z,0.47
2018-12-02T07:11:59.963Z,0.50
2018-12-02T07:14:27.079Z,0.60
2018-12-02T07:16:54.256Z,0.97
2018-12-02T07:19:29.282Z,0.60
2018-12-02T07:22:33.704Z,0.50
2018-12-02T07:25:06.672Z,0.70
2018-12-02T07:27:33.815Z,0.60
2018-12-02T07:30:00.949Z,0.63
2018-12-02T07:32:28.058Z,0.70
2018-12-02T07:34:55.223Z,0.50
2018-12-02T07:37:23.206Z,0.60
2018-12-02T07:40:28.540Z,0.90
2018-12-02T07:42:55.795Z,0.77
2018-12-02T07:45:22.988Z,0.80
2018-12-02T07:47:50.073Z,0.70
2018-12-02T07:50:17.226Z,0.60
2018-12-02T07:52:44.380Z,0.60
2018-12-02T07:55:11.562Z,0.80
2018-12-02T07:57:38.725Z,0.60
2018-12-02T08:00:10.037Z,0.67
2018-12-02T08:02:37.178Z,0.60
2018-12-02T08:05:05.988Z,0.60
2018-12-02T08:07:33.257Z,0.70
2018-12-02T08:10:00.646Z,0.50
2018-12-02T08:12:28.701Z,0.50
2018-12-02T08:14:56.062Z,0.93
2018-12-02T08:17:23.302Z,0.60
2018-12-02T08:19:50.484Z,0.60
2018-12-02T08:22:17.676Z,0.60
2018-12-02T08:24:44.852Z,0.80
2018-12-02T08:27:12.036Z,1.10
2018-12-02T08:29:39.221Z,0.60
2018-12-02T08:32:06.374Z,0.60
2018-12-02T08:34:33.617Z,0.60
2018-12-02T08:37:00.888Z,0.70
2018-12-02T08:39:28.159Z,0.70
2018-12-02T08:41:55.413Z,0.60
2018-12-02T08:44:22.527Z,0.60
2018-12-02T08:46:49.818Z,0.53
2018-12-02T08:49:16.971Z,0.60
2018-12-02T08:51:44.358Z,0.50
2018-12-02T08:54:11.593Z,0.60
2018-12-02T08:56:38.842Z,0.60
2018-12-02T08:59:06.147Z,0.80
2018-12-02T09:01:33.277Z,0.60
2018-12-02T09:04:00.413Z,0.70
2018-12-02T09:06:27.605Z,0.70
2018-12-02T09:08:54.736Z,0.83
2018-12-02T09:11:21.853Z,0.60
2018-12-02T09:13:48.984Z,0.60
2018-12-02T09:16:16.204Z,0.60
2018-12-02T09:18:43.372Z,0.70
2018-12-02T09:21:10.557Z,0.60
2018-12-02T09:23:37.773Z,0.70
2018-12-02T09:26:05.504Z,0.60
2018-12-02T09:28:32.793Z,0.80
2018-12-02T09:31:00.007Z,0.80
2018-12-02T09:33:27.178Z,0.70
2018-12-02T09:35:54.348Z,0.70
2018-12-02T09:38:21.716Z,0.70
2018-12-02T09:40:48.988Z,1.00
2018-12-02T09:43:16.502Z,1.00
2018-12-02T09:45:43.678Z,0.80
2018-12-02T09:48:10.875Z,0.90
2018-12-02T09:50:38.045Z,1.10
2018-12-02T09:53:06.782Z,0.80
2018-12-02T09:55:37.421Z,0.70
2018-12-02T09:58:07.487Z,0.80
2018-12-02T10:00:34.656Z,1.10
2018-12-02T10:03:01.927Z,1.30
2018-12-02T10:05:29.061Z,0.80
2018-12-02T10:07:56.192Z,0.90
2018-12-02T10:10:23.396Z,0.80
2018-12-02T10:13:00.052Z,0.87
2018-12-02T10:15:27.209Z,0.90
2018-12-02T10:17:54.367Z,0.90
2018-12-02T10:20:21.511Z,1.00
2018-12-02T10:22:48.754Z,0.87
2018-12-02T10:25:17.413Z,0.73
2018-12-02T10:27:44.679Z,1.00
2018-12-02T10:30:15.100Z,1.00
2018-12-02T10:32:42.263Z,1.00
2018-12-02T10:35:09.501Z,0.73
2018-12-02T10:37:36.769Z,0.90
2018-12-02T10:40:08.398Z,0.93
2018-12-02T10:42:35.571Z,1.13
2018-12-02T10:45:03.442Z,0.90
2018-12-02T10:47:31.257Z,1.20
2018-12-02T10:49:58.461Z,1.27
2018-12-02T10:52:25.624Z,1.10
2018-12-02T10:54:52.791Z,1.57
2018-12-02T10:57:19.948Z,1.70
2018-12-02T10:59:47.160Z,1.77
2018-12-02T11:02:15.441Z,1.67
2018-12-02T11:04:42.580Z,1.47
2018-12-02T11:07:09.810Z,2.07
2018-12-02T11:09:37.076Z,1.80
2018-12-02T11:12:04.581Z,1.60
2018-12-02T11:14:31.852Z,1.40
2018-12-02T11:16:58.993Z,1.17
2018-12-02T11:19:26.203Z,1.30
2018-12-02T11:21:53.358Z,2.00
2018-12-02T11:24:21.405Z,1.63
2018-12-02T11:29:24.909Z,1.20
2018-12-02T11:31:52.289Z,1.40
2018-12-02T11:34:19.461Z,1.50
2018-12-02T11:36:46.660Z,1.30
2018-12-02T11:39:13.949Z,1.37
2018-12-02T11:41:41.293Z,0.97
2018-12-02T11:44:08.504Z,1.60
2018-12-02T11:46:35.782Z,1.30
2018-12-02T11:49:02.903Z,1.60
2018-12-02T11:51:30.059Z,1.70
2018-12-02T11:53:57.281Z,1.50
2018-12-02T11:56:24.888Z,1.50
2018-12-02T11:58:52.172Z,1.80
2018-12-02T12:01:19.521Z,1.47
2018-12-02T12:03:46.802Z,1.60
2018-12-02T12:06:13.993Z,1.23
2018-12-02T12:08:41.163Z,1.47
2018-12-02T12:11:08.331Z,0.90
2018-12-02T12:13:35.484Z,1.50
2018-12-02T12:16:02.740Z,1.57
2018-12-02T12:18:30.076Z,1.50
2018-12-02T12:20:57.287Z,1.20
2018-12-02T12:23:24.477Z,1.37
2018-12-02T12:25:51.897Z,1.10
2018-12-02T12:28:19.642Z,1.07
2018-12-02T12:30:46.864Z,1.17
2018-12-02T12:33:14.032Z,1.33
2018-12-02T12:35:43.910Z,1.10
2018-12-02T12:38:11.114Z,1.17
2018-12-02T12:40:38.932Z,1.10
2018-12-02T12:43:22.386Z,1.10
2018-12-02T12:45:49.608Z,0.93
2018-12-02T12:48:17.079Z,0.67
2018-12-02T12:50:44.263Z,1.00
2018-12-02T12:53:11.869Z,0.93
2018-12-02T12:55:38.984Z,0.90
2018-12-02T12:58:06.917Z,1.20
2018-12-02T13:00:34.038Z,1.10
2018-12-02T13:03:01.223Z,0.93
2018-12-02T13:05:28.481Z,0.80
2018-12-02T13:07:56.198Z,1.30
2018-12-02T13:10:23.513Z,1.10
2018-12-02T13:12:50.768Z,1.07
2018-12-02T13:15:19.078Z,1.10
2018-12-02T13:17:55.710Z,1.40
2018-12-02T13:20:24.071Z,1.10
2018-12-02T13:22:51.184Z,1.70
2018-12-02T13:25:18.328Z,1.20
2018-12-02T13:27:45.773Z,1.00
2018-12-02T13:30:14.873Z,1.00
2018-12-02T13:32:42.348Z,0.83
2018-12-02T13:35:09.809Z,0.97
2018-12-02T13:37:37.359Z,1.47
2018-12-02T13:40:20.317Z,1.20
2018-12-02T13:42:51.094Z,1.00
2018-12-02T13:45:21.528Z,1.00
2018-12-02T13:47:48.802Z,0.90
2018-12-02T13:50:17.887Z,1.10
2018-12-02T13:52:46.046Z,1.10
2018-12-02T13:55:15.055Z,0.93
2018-12-02T13:57:42.297Z,1.00
2018-12-02T14:00:16.362Z,1.03
2018-12-02T14:02:44.793Z,1.00
2018-12-02T14:05:12.050Z,1.20
2018-12-02T14:07:39.209Z,1.00
2018-12-02T14:10:08.898Z,1.20
2018-12-02T14:12:37.132Z,0.80
2018-12-02T14:16:20.372Z,0.83
2018-12-02T14:18:47.667Z,1.00
2018-12-02T14:21:14.979Z,1.50
2018-12-02T14:23:42.883Z,1.00
2018-12-02T14:26:12.861Z,1.10
2018-12-02T14:28:47.296Z,1.30
2018-12-02T14:31:15.233Z,1.30
2018-12-02T14:33:42.424Z,1.37
2018-12-02T14:36:09.547Z,1.10
2018-12-02T14:38:37.464Z,1.53
2018-12-02T14:41:05.330Z,1.33
2018-12-02T14:43:32.593Z,0.80
2018-12-02T14:45:59.796Z,1.10
2018-12-02T14:48:27.040Z,1.00
2018-12-02T14:50:54.232Z,0.87
2018-12-02T14:53:21.415Z,1.33
2018-12-02T14:55:48.644Z,1.10
2018-12-02T14:58:16.186Z,1.00
2018-12-02T15:00:43.412Z,1.00
2018-12-02T15:03:10.656Z,1.60
2018-12-02T15:05:37.918Z,1.27
2018-12-02T15:08:05.209Z,1.33
2018-12-02T15:10:32.674Z,1.60
2018-12-02T15:13:00.014Z,0.90
2018-12-02T15:15:27.439Z,1.00
2018-12-02T15:17:54.703Z,1.10
2018-12-02T15:20:21.874Z,1.20
2018-12-02T15:22:49.092Z,1.20
2018-12-02T15:25:16.283Z,1.30
2018-12-02T15:27:44.048Z,1.27
2018-12-02T15:30:13.008Z,1.10
2018-12-02T15:32:41.020Z,1.20
2018-12-02T15:35:09.204Z,1.13
2018-12-02T15:37:36.364Z,1.60
2018-12-02T15:40:04.757Z,1.20
2018-12-02T15:42:32.012Z,1.60
2018-12-02T15:44:59.284Z,1.53
2018-12-02T15:47:26.447Z,1.40
2018-12-02T15:49:53.656Z,1.10
2018-12-02T15:52:20.924Z,1.80
2018-12-02T15:54:48.144Z,1.70
2018-12-02T15:57:15.554Z,1.93
2018-12-02T15:59:42.819Z,1.50
2018-12-02T16:02:10.167Z,1.47
2018-12-02T16:04:37.446Z,2.60
2018-12-02T16:07:04.771Z,1.40
2018-12-02T16:09:31.969Z,1.70
2018-12-02T16:11:59.228Z,1.50
2018-12-02T16:14:26.547Z,1.90
2018-12-02T16:16:54.093Z,1.30
2018-12-02T16:19:21.305Z,1.50
2018-12-02T16:21:48.574Z,1.60
2018-12-02T16:24:15.862Z,1.40
2018-12-02T16:26:43.362Z,2.30
2018-12-02T16:29:10.664Z,1.40
2018-12-02T16:31:37.923Z,1.37
2018-12-02T16:34:05.459Z,1.50
2018-12-02T16:36:32.990Z,1.40
2018-12-02T16:39:00.237Z,1.70
2018-12-02T16:41:27.556Z,0.90
2018-12-02T16:43:54.876Z,1.20
2018-12-02T16:46:22.161Z,1.27
2018-12-02T16:48:49.373Z,1.20
2018-12-02T16:51:16.612Z,1.00
2018-12-02T16:53:43.757Z,1.30
2018-12-02T16:56:14.794Z,1.00
2018-12-02T16:58:48.080Z,1.97
2018-12-02T17:01:19.600Z,1.50
2018-12-02T17:03:47.279Z,1.67
2018-12-02T17:06:14.553Z,2.13
2018-12-02T17:08:41.764Z,1.40
2018-12-02T17:11:08.984Z,1.63
2018-12-02T17:13:36.266Z,1.13
2018-12-02T17:16:03.601Z,1.00
2018-12-02T17:18:30.812Z,1.07
2018-12-02T17:20:58.029Z,1.43
2018-12-02T17:23:25.173Z,2.00
2018-12-02T17:25:52.531Z,0.93
2018-12-02T17:28:19.725Z,1.00
2018-12-02T17:30:49.672Z,0.90
2018-12-02T17:33:16.890Z,1.20
2018-12-02T17:35:44.122Z,1.00
2018-12-02T17:38:11.272Z,1.20
2018-12-02T17:40:38.412Z,0.90
2018-12-02T17:43:08.052Z,1.43
2018-12-02T17:45:35.416Z,0.90
2018-12-02T17:48:02.759Z,0.70
2018-12-02T17:50:30.013Z,1.10
2018-12-02T17:52:57.335Z,0.80
2018-12-02T17:55:24.553Z,0.60
2018-12-02T17:57:52.152Z,0.80
2018-12-02T18:00:21.124Z,0.97
2018-12-02T18:02:48.324Z,2.13
2018-12-02T18:05:17.692Z,1.30
2018-12-02T18:07:44.805Z,0.80
2018-12-02T18:10:13.163Z,1.77
2018-12-02T18:12:43.424Z,0.80
2018-12-02T18:15:12.560Z,1.27
2018-12-02T18:17:39.716Z,1.40
2018-12-02T18:20:15.076Z,1.03
2018-12-02T18:22:42.263Z,1.10
2018-12-02T18:25:10.658Z,1.60
2018-12-02T18:27:37.777Z,1.57
2018-12-02T18:30:13.401Z,1.00
2018-12-02T18:32:40.574Z,1.00
2018-12-02T18:35:46.856Z,2.80
2018-12-02T18:38:16.475Z,3.27
2018-12-02T18:40:48.295Z,1.40
2018-12-02T18:43:15.528Z,1.40
2018-12-02T18:45:42.730Z,1.47
2018-12-02T18:48:09.888Z,1.20
2018-12-02T18:50:37.086Z,1.70
2018-12-02T18:53:04.979Z,1.50
2018-12-02T18:55:32.143Z,1.57
2018-12-02T18:57:59.377Z,1.70
2018-12-02T19:00:32.234Z,1.93
2018-12-02T19:02:59.374Z,2.23
2018-12-02T19:05:26.538Z,2.00
2018-12-02T19:07:53.688Z,1.93
2018-12-02T19:10:22.629Z,1.90
2018-12-02T19:12:49.977Z,1.73
2018-12-02T19:15:17.169Z,1.80
2018-12-02T19:17:44.640Z,2.40
2018-12-02T19:20:16.306Z,2.07
2018-12-02T19:22:44.282Z,4.03
2018-12-02T19:25:13.040Z,2.50
2018-12-02T19:27:40.196Z,3.23
2018-12-02T19:30:15.842Z,2.40
2018-12-02T19:32:43.551Z,1.07
2018-12-02T19:35:22.300Z,0.97
2018-12-02T19:37:51.480Z,0.90
2018-12-02T19:40:18.676Z,0.90
2018-12-02T19:42:45.886Z,1.40
2018-12-02T19:45:19.164Z,1.13
2018-12-02T19:47:46.428Z,0.87
2018-12-02T19:50:18.347Z,1.30
2018-12-02T19:52:45.962Z,1.70
2018-12-02T19:55:13.603Z,1.60
2018-12-02T19:57:42.324Z,1.50
2018-12-02T20:00:30.378Z,1.47
2018-12-02T20:02:57.598Z,1.40
2018-12-02T20:05:25.760Z,0.90
2018-12-02T20:07:56.864Z,1.20
2018-12-02T20:10:27.945Z,1.33
2018-12-02T20:13:00.072Z,1.47
2018-12-02T20:15:27.276Z,1.07
2018-12-02T20:17:54.511Z,1.10
2018-12-02T20:20:27.227Z,1.70
2018-12-02T20:22:54.473Z,1.70
2018-12-02T20:25:23.443Z,0.93
2018-12-02T20:27:53.450Z,0.80
2018-12-02T20:30:21.309Z,1.13
2018-12-02T20:32:48.610Z,1.27
2018-12-02T20:35:15.737Z,0.80
2018-12-02T20:37:42.985Z,0.83
2018-12-02T20:40:16.279Z,0.90
2018-12-02T20:42:44.693Z,0.80
2018-12-02T20:45:12.923Z,0.80
2018-12-02T20:47:40.225Z,1.10
2018-12-02T20:50:08.887Z,0.87
2018-12-02T20:52:36.069Z,1.63
2018-12-02T20:55:05.085Z,1.00
2018-12-02T20:57:32.272Z,0.90
2018-12-02T20:59:59.479Z,1.07
2018-12-02T21:02:26.781Z,1.03
2018-12-02T21:04:54.139Z,1.27
2018-12-02T21:07:21.319Z,1.17
2018-12-02T21:09:48.497Z,1.50
2018-12-02T21:12:15.824Z,1.30
2018-12-02T21:14:43.147Z,1.20
2018-12-02T21:17:10.317Z,1.40
2018-12-02T21:19:37.525Z,1.30
2018-12-02T21:22:05.108Z,1.43
2018-12-02T21:24:32.239Z,1.07
2018-12-02T21:26:59.374Z,1.00
2018-12-02T21:29:26.528Z,1.00
2018-12-02T21:31:53.745Z,0.83
2018-12-02T21:34:20.933Z,0.80
2018-12-02T21:36:48.131Z,0.80
2018-12-02T21:39:15.313Z,0.80
2018-12-02T21:41:42.497Z,0.80
2018-12-02T21:44:10.491Z,0.70
2018-12-02T21:46:37.698Z,0.80
2018-12-02T21:49:05.408Z,0.90
2018-12-02T21:51:32.556Z,0.60
2018-12-02T21:53:59.708Z,0.70
2018-12-02T21:56:26.873Z,0.80
2018-12-02T21:58:54.064Z,0.60
2018-12-02T22:01:21.221Z,0.63
2018-12-02T22:03:48.387Z,0.50
2018-12-02T22:06:15.573Z,0.90
2018-12-02T22:08:42.754Z,0.80
2018-12-02T22:11:09.911Z,1.00
2018-12-02T22:13:37.104Z,0.70
2018-12-02T22:16:04.373Z,0.60
2018-12-02T22:18:31.549Z,0.50
2018-12-02T22:20:58.689Z,0.50
2018-12-02T22:23:25.914Z,0.70
2018-12-02T22:25:53.077Z,0.70
2018-12-02T22:28:20.206Z,0.60
2018-12-02T22:30:47.456Z,0.70
2018-12-02T22:33:15.128Z,0.70
2018-12-02T22:35:42.321Z,0.70
2018-12-02T22:38:09.556Z,0.60
2018-12-02T22:40:36.806Z,0.90
2018-12-02T22:43:04.187Z,0.80
2018-12-02T22:45:31.358Z,0.70
2018-12-02T22:47:58.580Z,0.80
2018-12-02T22:50:27.724Z,0.80
2018-12-02T22:52:56.110Z,0.80
2018-12-02T22:55:23.307Z,0.90
2018-12-02T22:57:50.884Z,0.80
2018-12-02T23:00:26.845Z,0.63
2018-12-02T23:03:08.982Z,0.80
2018-12-02T23:05:36.182Z,0.60
2018-12-02T23:08:03.392Z,0.70
2018-12-02T23:10:30.600Z,0.70
2018-12-02T23:12:57.843Z,0.80
2018-12-02T23:15:25.105Z,0.70
2018-12-02T23:17:52.252Z,0.77
2018-12-02T23:20:19.449Z,0.70
2018-12-02T23:22:46.624Z,0.70
2018-12-02T23:25:14.704Z,0.70
2018-12-02T23:27:41.961Z,1.10
2018-12-02T23:30:16.505Z,0.63
2018-12-02T23:32:43.800Z,0.70
2018-12-02T23:35:10.971Z,0.60
2018-12-02T23:37:38.192Z,1.10
2018-12-02T23:40:11.593Z,0.60
2018-12-02T23:42:38.788Z,0.50
2018-12-02T23:45:07.874Z,0.70
2018-12-02T23:47:35.157Z,0.50
2018-12-02T23:50:02.380Z,0.67
2018-12-02T23:52:29.735Z,0.60
2018-12-02T23:54:56.943Z,0.50
2018-12-02T23:57:24.161Z,0.60
2018-12-02T23:59:51.364Z,1.23
